Latest Weather Observations for Smithton

IDT60801

Issued at 11:32 pm EDT Monday 27 March 2017 (issued every 30 minutes, with the page automatically refreshed every 10 minutes)

About weather observations | Map of weather stations | Latest weather observations for TAS | Other Formats
Station Details ID: 091292 Name: SMITHTON AERODROME Lat: -40.83 Lon: 145.08 Height: 7.5 m
Data from the previous 72 hours. | See also: Recent months at Smithton
Date/Time
EDT
Temp
°C
App
Temp
°C
Dew
Point
°C
Rel
Hum
%
Delta-T
°C
Wind Press
QNH
hPa
Press
MSL
hPa
Rain since
9am
mm
Dir  Spd
km/h
Gust
km/h
Spd
kts
Gust
kts
27/11:30pm 14.3 10.9 10.5 78 2.0 W 19 24 10 13 1009.2 - 6.8
27/11:00pm 14.5 11.6 10.9 79 1.9 W 17 24 9 13 1009.1 - 6.8
27/10:30pm 15.0 11.6 10.6 75 2.3 W 19 22 10 12 1009.0 - 6.6
27/10:00pm 15.5 10.9 10.9 74 2.4 W 26 35 14 19 1008.9 - 6.6
27/09:30pm 15.8 10.8 11.0 73 2.6 W 28 41 15 22 1008.6 - 6.6
27/09:00pm 15.9 10.8 10.7 71 2.8 W 28 39 15 21 1008.2 1008.2 6.6
27/08:30pm 16.1 10.8 11.3 73 2.6 W 30 41 16 22 1007.7 - 6.6
27/08:00pm 16.1 11.2 11.3 73 2.6 W 28 39 15 21 1007.4 - 6.6
27/07:30pm 16.6 10.4 11.3 71 2.9 W 35 48 19 26 1006.9 - 6.6
27/07:00pm 17.1 11.1 12.2 73 2.7 W 35 48 19 26 1006.5 - 6.6
27/06:30pm 17.6 11.4 12.7 73 2.7 WNW 37 50 20 27 1006.0 - 6.6
27/06:00pm 17.6 12.4 12.7 73 2.7 WNW 32 44 17 24 1005.7 1005.7 6.6
27/05:30pm 18.2 12.9 13.1 72 2.9 WNW 33 48 18 26 1005.6 - 6.6
27/05:04pm 18.2 13.1 13.1 72 2.9 W 32 50 17 27 1005.5 - 6.6
27/05:00pm 18.8 13.4 13.9 73 2.8 W 35 50 19 27 1005.5 - 6.6
27/04:43pm 18.2 13.4 13.9 76 2.5 W 32 61 17 33 1005.2 - 6.6
27/04:30pm 17.3 13.5 14.6 84 1.6 W 28 39 15 21 1005.3 - 6.6
27/04:00pm 16.1 13.4 14.5 90 0.9 WNW 22 30 12 16 1005.8 - 6.6
27/03:30pm 14.9 12.2 13.6 92 0.7 W 20 28 11 15 1005.7 - 6.6
27/03:00pm 14.8 11.0 13.5 92 0.7 W 26 37 14 20 1005.2 1005.2 6.6
27/02:30pm 14.9 11.0 13.3 90 0.9 W 26 35 14 19 1004.8 - 5.4
27/02:00pm 15.5 7.7 13.0 85 1.4 WNW 46 69 25 37 1005.3 - 4.6
27/01:52pm 16.5 11.1 13.8 84 1.5 WNW 35 61 19 33 1005.2 - 4.0
27/01:30pm 17.7 12.5 14.4 81 1.9 W 35 52 19 28 1004.4 - 3.8
27/01:00pm 18.6 13.2 16.9 90 1.0 W 41 61 22 33 1004.3 - 3.6
27/12:46pm 19.0 12.8 17.3 90 1.0 W 46 65 25 35 1003.8 - 3.6
27/12:37pm 20.2 12.0 17.2 83 1.8 W 56 65 30 35 1003.4 - 3.4
27/12:33pm 21.2 17.7 17.8 81 2.1 WNW 33 54 18 29 1002.9 - 3.4
27/12:30pm 21.3 20.0 18.1 82 2.0 NNW 22 35 12 19 1002.8 - 3.4
27/12:00pm 21.3 20.7 18.9 86 1.5 NE 20 32 11 17 1001.9 1001.8 3.4
27/11:30am 20.9 19.5 18.7 87 1.4 ENE 24 32 13 17 1001.8 - 3.4
27/11:00am 20.6 20.1 19.1 91 0.9 ENE 20 28 11 15 1001.6 - 3.4
27/10:30am 19.8 18.0 18.8 94 0.6 E 26 37 14 20 1001.1 - 3.4
27/10:00am 19.0 16.5 18.0 94 0.6 E 28 37 15 20 1001.7 - 3.0
27/09:35am 19.6 17.2 18.3 92 0.8 E 28 46 15 25 1003.6 - 0.0
27/09:30am 19.5 16.2 18.3 93 0.7 E 33 46 18 25 1001.8 - 0.0
27/09:00am 19.2 15.4 18.2 94 0.6 E 35 48 19 26 1001.3 1001.2 0.0
27/08:30am 19.1 15.3 18.1 94 0.6 ENE 35 46 19 25 1002.4 - 0.0
27/08:00am 19.1 15.9 18.1 94 0.6 ENE 32 44 17 24 1003.3 - 0.0
27/07:41am 18.9 16.1 18.1 95 0.5 ENE 30 48 16 26 1003.4 - 0.0
27/07:30am 18.8 15.3 18.0 95 0.5 ENE 33 48 18 26 1003.8 - 0.0
27/07:00am 18.8 15.8 17.8 94 0.6 ENE 30 46 16 25 1004.2 - 0.0
27/06:55am 18.9 16.3 17.9 94 0.6 ENE 28 46 15 25 1004.3 - 0.0
27/06:30am 18.8 15.9 18.0 95 0.5 ENE 30 43 16 23 1004.9 - 0.0
27/06:00am 18.7 16.9 17.9 95 0.5 ENE 24 35 13 19 1005.6 1005.6 0.0
27/05:30am 18.6 16.4 17.8 95 0.5 ENE 26 41 14 22 1005.7 - 0.0
27/05:00am 18.8 15.9 18.0 95 0.5 ENE 30 41 16 22 1006.0 - 0.0
27/04:30am 18.9 15.6 17.9 94 0.6 ENE 32 43 17 23 1006.4 - 0.0
27/04:00am 18.5 14.9 17.3 93 0.7 ENE 32 43 17 23 1006.7 - 0.0
27/03:30am 18.2 15.3 17.0 93 0.7 ENE 28 41 15 22 1007.3 - 0.0
27/03:00am 18.1 14.3 16.8 92 0.8 ENE 32 44 17 24 1007.6 1007.6 0.0
27/02:30am 18.2 15.2 16.9 92 0.8 ENE 28 39 15 21 1008.2 - 0.0
27/02:00am 18.3 15.4 17.0 92 0.8 ENE 28 43 15 23 1008.7 - 0.0
27/01:30am 18.2 16.0 16.9 92 0.8 ENE 24 33 13 18 1009.7 - 0.0
27/01:00am 18.2 15.5 16.7 91 0.9 ENE 26 37 14 20 1010.3 - 0.0
27/12:30am 18.0 15.6 16.3 90 1.0 ENE 24 35 13 19 1011.1 - 0.0
27/12:00am 18.0 15.1 16.2 89 1.1 NE 26 35 14 19 1011.5 1011.5 0.0
 
Date/Time
EDT
Temp
°C
App
Temp
°C
Dew
Point
°C
Rel
Hum
%
Delta-T
°C
Wind Press
QNH
hPa
Press
MSL
hPa
Rain since
9am
mm
Dir  Spd
km/h
Gust
km/h
Spd
kts
Gust
kts
26/11:30pm 18.1 15.2 16.1 88 1.2 NE 26 41 14 22 1012.0 - 0.0
26/11:00pm 18.1 14.7 15.7 86 1.4 NE 28 39 15 21 1012.3 - 0.0
26/10:30pm 18.1 14.7 15.9 87 1.3 NE 28 35 15 19 1012.6 - 0.0
26/10:00pm 18.1 16.2 16.6 91 0.9 NE 22 32 12 17 1012.5 - 0.0
26/09:30pm 17.3 16.1 16.0 92 0.8 ENE 17 20 9 11 1012.4 - 0.0
26/09:00pm 17.5 16.3 16.0 91 0.9 NE 17 22 9 12 1012.6 1012.6 0.0
26/08:30pm 17.6 16.8 16.1 91 0.9 NNE 15 20 8 11 1012.8 - 0.0
26/08:00pm 18.0 17.2 16.2 89 1.1 NNE 15 20 8 11 1012.7 - 0.0
26/07:30pm 18.1 17.1 15.7 86 1.4 NNE 15 19 8 10 1012.8 - 0.0
26/07:00pm 18.4 17.7 15.5 83 1.7 NNE 13 17 7 9 1012.7 - 0.0
26/06:30pm 19.2 18.0 16.1 82 1.8 NNE 17 20 9 11 1013.0 - 0.0
26/06:00pm 19.7 18.5 16.2 80 2.1 N 17 20 9 11 1013.0 1013.0 0.0
26/05:30pm 20.1 19.3 16.1 78 2.4 NNE 15 20 8 11 1013.1 - 0.0
26/05:00pm 20.6 19.4 16.0 75 2.8 N 17 20 9 11 1013.2 - 0.0
26/04:30pm 21.0 19.5 16.2 74 2.9 N 19 24 10 13 1013.3 - 0.0
26/04:00pm 21.6 20.9 16.3 72 3.2 NNE 15 20 8 11 1013.1 - 0.0
26/03:30pm 21.6 21.1 16.8 74 2.9 N 15 20 8 11 1013.1 - 0.0
26/03:00pm 21.3 20.2 16.3 73 3.0 N 17 20 9 11 1013.7 1013.7 0.0
26/02:30pm 21.9 20.9 16.6 72 3.2 N 17 20 9 11 1013.8 - 0.0
26/02:00pm 21.7 20.7 16.6 73 3.1 N 17 20 9 11 1014.0 - 0.0
26/01:30pm 21.4 20.1 15.9 71 3.3 NNE 17 20 9 11 1014.3 - 0.0
26/01:00pm 22.0 21.5 16.9 73 3.1 NNE 15 19 8 10 1014.8 - 0.0
26/12:30pm 21.5 21.5 17.1 76 2.7 NNE 13 17 7 9 1015.2 - 0.0
26/12:00pm 20.8 21.5 16.2 75 2.8 SSE 7 11 4 6 1015.4 1015.4 0.0
26/11:30am 21.6 23.9 19.5 88 1.3 SSE 6 9 3 5 1015.5 - 0.0
26/11:00am 19.1 20.9 18.4 96 0.4 SSE 6 9 3 5 1015.6 - 0.0
26/10:30am 18.6 19.8 18.3 98 0.2 SSE 9 13 5 7 1015.8 - 0.0
26/10:00am 17.5 18.4 17.5 100 0.0 SE 9 11 5 6 1015.7 - 0.0
26/09:30am 15.9 15.8 15.9 100 0.0 E 11 15 6 8 1015.7 - 0.0
26/09:00am 14.7 14.9 14.7 100 0.0 E 7 7 4 4 1015.3 1015.3 1.8
26/08:30am 12.0 11.3 12.0 100 0.0 E 7 7 4 4 1015.2 - 1.8
26/08:00am 10.1 9.7 9.9 99 0.1 E 2 6 1 3 1014.8 - 1.8
26/07:30am 10.7 10.5 10.5 99 0.1 E 2 6 1 3 1014.5 - 1.8
26/07:00am 10.7 9.2 10.5 99 0.1 E 9 11 5 6 1014.4 - 1.8
26/06:30am 10.4 8.8 10.2 99 0.1 E 9 9 5 5 1014.1 - 1.8
26/06:00am 11.6 10.9 11.4 99 0.1 E 6 7 3 4 1013.8 1013.8 1.8
26/05:30am 11.9 11.3 11.7 99 0.1 E 6 9 3 5 1013.8 - 1.8
26/05:00am 12.4 11.8 12.2 99 0.1 E 7 11 4 6 1013.2 - 1.8
26/04:30am 13.9 13.4 13.7 99 0.1 E 9 13 5 7 1013.2 - 1.6
26/04:00am 13.1 13.3 12.9 99 0.1 E 4 9 2 5 1013.4 - 1.6
26/03:30am 12.1 12.7 11.9 99 0.1 CALM 0 0 0 0 1013.6 - 1.6
26/03:00am 10.9 9.8 10.6 98 0.2 E 7 9 4 5 1014.0 1014.0 1.6
26/02:30am 11.4 10.4 11.1 98 0.2 E 7 9 4 5 1014.1 - 1.6
26/02:00am 11.4 10.4 11.1 98 0.2 E 7 9 4 5 1014.0 - 1.6
26/01:30am 12.3 11.8 12.0 98 0.2 E 6 7 3 4 1013.8 - 1.6
26/01:00am 12.7 12.2 12.2 97 0.3 E 6 6 3 3 1013.9 - 1.6
26/12:30am 13.2 12.3 12.7 97 0.3 E 9 9 5 5 1013.9 - 1.6
26/12:00am 13.6 12.9 13.1 97 0.3 E 9 9 5 5 1014.1 1014.1 1.6
 
Date/Time
EDT
Temp
°C
App
Temp
°C
Dew
Point
°C
Rel
Hum
%
Delta-T
°C
Wind Press
QNH
hPa
Press
MSL
hPa
Rain since
9am
mm
Dir  Spd
km/h
Gust
km/h
Spd
kts
Gust
kts
25/11:30pm 13.5 13.1 12.9 96 0.3 E 7 9 4 5 1013.8 - 1.6
25/11:00pm 13.8 13.5 13.2 96 0.3 E 7 9 4 5 1013.8 - 1.6
25/10:30pm 14.6 14.7 13.8 95 0.4 E 6 7 3 4 1013.4 - 1.6
25/10:00pm 15.9 15.5 15.1 95 0.5 E 11 13 6 7 1013.3 - 1.6
25/09:30pm 15.9 15.8 14.9 94 0.6 E 9 11 5 6 1013.0 - 1.6
25/09:00pm 16.4 16.4 15.3 93 0.6 E 9 11 5 6 1013.0 1013.0 1.6
25/08:30pm 17.1 17.3 15.8 92 0.8 E 9 11 5 6 1012.8 - 1.6
25/08:00pm 17.5 18.4 16.0 91 0.9 E 6 7 3 4 1012.5 - 1.6
25/07:30pm 18.0 18.7 16.2 89 1.1 E 7 9 4 5 1012.2 - 1.6
25/07:00pm 18.5 19.0 16.5 88 1.2 E 9 13 5 7 1011.9 - 1.6
25/06:30pm 18.7 18.8 16.5 87 1.3 E 11 13 6 7 1011.9 - 1.6
25/06:00pm 18.8 18.1 16.4 86 1.4 ENE 15 20 8 11 1011.6 1011.6 1.6
25/05:30pm 18.9 18.2 16.5 86 1.4 ENE 15 20 8 11 1011.4 - 1.6
25/05:00pm 19.2 17.8 16.6 85 1.6 E 19 24 10 13 1011.2 - 1.6
25/04:30pm 19.8 18.5 17.2 85 1.6 ENE 20 30 11 16 1011.2 - 1.6
25/04:00pm 19.8 18.1 17.2 85 1.6 ENE 22 32 12 17 1011.3 - 1.6
25/03:30pm 19.6 17.7 16.8 84 1.7 E 22 30 12 16 1011.5 - 1.6
25/03:00pm 19.5 17.3 16.9 85 1.6 E 24 32 13 17 1011.6 1011.6 1.6
25/02:30pm 20.0 17.5 17.0 83 1.8 ENE 26 33 14 18 1011.8 - 1.6
25/02:00pm 19.4 16.9 17.2 87 1.3 E 26 35 14 19 1012.0 - 1.6
25/01:30pm 18.5 15.5 16.7 89 1.1 ENE 28 37 15 20 1012.3 - 1.6
25/01:00pm 18.3 16.5 17.0 92 0.8 E 22 30 12 16 1012.4 - 1.6
25/12:30pm 16.8 13.5 16.0 95 0.5 E 28 39 15 21 1012.5 - 1.6
25/12:00pm 16.5 13.5 15.9 96 0.4 E 26 35 14 19 1012.6 1012.6 1.6
25/11:30am 16.2 12.7 15.4 95 0.5 E 28 39 15 21 1012.9 - 1.6
25/11:00am 16.2 13.7 15.2 94 0.6 E 22 30 12 16 1013.6 - 0.6
25/10:30am 16.4 13.2 15.4 94 0.6 E 26 35 14 19 1013.3 - 0.2
25/10:00am 16.1 12.9 15.3 95 0.5 E 26 35 14 19 1012.9 - 0.0
25/09:30am 15.7 12.4 14.9 95 0.5 E 26 35 14 19 1013.4 - 0.0
25/09:00am 15.4 12.7 14.6 95 0.5 E 22 30 12 16 1013.6 1013.6 0.4
25/08:30am 15.0 11.4 14.2 95 0.5 E 26 33 14 18 1013.6 - 0.4
25/08:00am 14.9 11.6 13.9 94 0.6 E 24 33 13 18 1013.8 - 0.4
25/07:30am 14.9 11.9 13.8 93 0.6 E 22 28 12 15 1013.7 - 0.2
25/07:00am 14.8 12.1 13.5 92 0.7 E 20 26 11 14 1013.8 - 0.0
25/06:30am 15.2 11.4 13.6 90 0.9 E 26 35 14 19 1014.0 - 0.0
25/06:00am 15.5 11.7 13.5 88 1.1 E 26 35 14 19 1014.3 1014.3 0.0
25/05:30am 16.0 11.5 13.7 86 1.3 E 30 43 16 23 1014.1 - 0.0
25/05:00am 16.7 12.5 13.4 81 1.9 ENE 28 41 15 22 1014.3 - 0.0
25/04:30am 16.6 13.1 13.3 81 1.8 E 24 35 13 19 1014.1 - 0.0
25/04:00am 16.9 12.4 12.6 76 2.4 ENE 28 39 15 21 1015.0 - 0.0
25/03:30am 16.8 12.1 12.1 74 2.6 ENE 28 41 15 22 1014.9 - 0.0
25/03:16am 16.8 12.1 11.9 73 2.7 ENE 28 46 15 25 1015.0 - 0.0
25/03:00am 16.7 11.6 13.0 79 2.1 E 32 43 17 23 1015.1 1015.1 0.0
25/02:30am 16.7 11.4 13.0 79 2.1 ENE 33 46 18 25 1015.7 - 0.0
25/02:00am 16.3 10.7 13.2 82 1.7 ENE 35 48 19 26 1015.5 - 0.0
25/01:30am 16.7 11.5 12.8 78 2.2 ENE 32 43 17 23 1016.6 - 0.0
25/01:00am 17.1 11.8 13.0 77 2.3 ENE 33 46 18 25 1017.0 - 0.0
25/12:30am 17.0 12.2 12.9 77 2.3 ENE 30 43 16 23 1017.4 - 0.0
25/12:00am 17.0 12.1 12.5 75 2.5 ENE 30 44 16 24 1017.5 1017.5 0.0

Other Formats:

Comma delimited format used in spreadsheet applications
http://www.bom.gov.au/fwo/IDT60801/IDT60801.94953.axf

JavaScript Object Notation format (JSON) in row-major order
http://www.bom.gov.au/fwo/IDT60801/IDT60801.94953.json